sensor_id;sensor_type;location;lat;lon;timestamp;P1;durP1;ratioP1;P2;durP2;ratioP2
61096;SDS011;46977;50.936;6.908;2023-07-29T00:00:16;5.60;;;2.67;;
61096;SDS011;46977;50.936;6.908;2023-07-29T00:03:19;4.30;;;3.10;;
61096;SDS011;46977;50.936;6.908;2023-07-29T00:06:21;5.57;;;3.25;;
61096;SDS011;46977;50.936;6.908;2023-07-29T00:09:23;6.28;;;3.22;;
61096;SDS011;46977;50.936;6.908;2023-07-29T00:12:27;5.30;;;2.90;;
61096;SDS011;46977;50.936;6.908;2023-07-29T00:15:29;8.30;;;3.03;;
61096;SDS011;46977;50.936;6.908;2023-07-29T00:18:32;8.63;;;3.45;;
61096;SDS011;46977;50.936;6.908;2023-07-29T00:21:34;9.13;;;3.05;;
61096;SDS011;46977;50.936;6.908;2023-07-29T00:24:37;6.68;;;3.05;;
61096;SDS011;46977;50.936;6.908;2023-07-29T00:27:40;9.38;;;3.70;;
61096;SDS011;46977;50.936;6.908;2023-07-29T00:30:43;7.82;;;3.75;;
61096;SDS011;46977;50.936;6.908;2023-07-29T00:33:45;7.78;;;3.50;;
61096;SDS011;46977;50.936;6.908;2023-07-29T00:36:50;8.57;;;4.22;;
61096;SDS011;46977;50.936;6.908;2023-07-29T00:39:53;7.45;;;4.07;;
61096;SDS011;46977;50.936;6.908;2023-07-29T00:42:58;8.55;;;3.85;;
61096;SDS011;46977;50.936;6.908;2023-07-29T00:46:00;6.10;;;3.70;;
61096;SDS011;46977;50.936;6.908;2023-07-29T00:49:03;12.27;;;3.90;;
61096;SDS011;46977;50.936;6.908;2023-07-29T00:52:06;11.63;;;4.47;;
61096;SDS011;46977;50.936;6.908;2023-07-29T00:55:08;6.75;;;3.88;;
61096;SDS011;46977;50.936;6.908;2023-07-29T00:58:12;7.88;;;4.32;;
61096;SDS011;46977;50.936;6.908;2023-07-29T01:01:15;8.38;;;4.57;;
61096;SDS011;46977;50.936;6.908;2023-07-29T01:04:17;6.60;;;4.22;;
61096;SDS011;46977;50.936;6.908;2023-07-29T01:07:21;7.68;;;4.38;;
61096;SDS011;46977;50.936;6.908;2023-07-29T01:10:29;9.98;;;4.47;;
61096;SDS011;46977;50.936;6.908;2023-07-29T01:13:37;9.85;;;4.63;;
61096;SDS011;46977;50.936;6.908;2023-07-29T01:16:44;7.53;;;4.30;;
61096;SDS011;46977;50.936;6.908;2023-07-29T01:19:54;7.97;;;3.95;;
61096;SDS011;46977;50.936;6.908;2023-07-29T01:23:01;8.88;;;4.05;;
61096;SDS011;46977;50.936;6.908;2023-07-29T01:26:04;10.13;;;4.40;;
61096;SDS011;46977;50.936;6.908;2023-07-29T01:29:08;10.15;;;4.60;;
61096;SDS011;46977;50.936;6.908;2023-07-29T01:32:10;8.13;;;4.63;;
61096;SDS011;46977;50.936;6.908;2023-07-29T01:35:17;11.40;;;4.80;;
61096;SDS011;46977;50.936;6.908;2023-07-29T01:38:23;8.48;;;4.70;;
61096;SDS011;46977;50.936;6.908;2023-07-29T01:41:32;10.63;;;4.57;;
61096;SDS011;46977;50.936;6.908;2023-07-29T01:44:35;9.90;;;4.60;;
61096;SDS011;46977;50.936;6.908;2023-07-29T01:47:37;11.55;;;4.65;;
61096;SDS011;46977;50.936;6.908;2023-07-29T01:50:42;9.43;;;4.30;;
61096;SDS011;46977;50.936;6.908;2023-07-29T01:53:44;12.25;;;5.00;;
61096;SDS011;46977;50.936;6.908;2023-07-29T01:56:48;13.05;;;5.13;;
61096;SDS011;46977;50.936;6.908;2023-07-29T01:59:53;15.77;;;5.88;;
61096;SDS011;46977;50.936;6.908;2023-07-29T02:02:55;12.07;;;5.63;;
61096;SDS011;46977;50.936;6.908;2023-07-29T02:05:57;12.52;;;5.13;;
61096;SDS011;46977;50.936;6.908;2023-07-29T02:09:00;15.40;;;5.30;;
61096;SDS011;46977;50.936;6.908;2023-07-29T02:12:04;14.80;;;5.43;;
61096;SDS011;46977;50.936;6.908;2023-07-29T02:15:11;12.02;;;5.88;;
61096;SDS011;46977;50.936;6.908;2023-07-29T02:18:14;13.23;;;6.05;;
61096;SDS011;46977;50.936;6.908;2023-07-29T02:21:16;11.90;;;5.53;;
61096;SDS011;46977;50.936;6.908;2023-07-29T02:24:19;14.15;;;5.32;;
61096;SDS011;46977;50.936;6.908;2023-07-29T02:27:23;13.57;;;6.47;;
61096;SDS011;46977;50.936;6.908;2023-07-29T02:30:29;15.52;;;5.40;;
61096;SDS011;46977;50.936;6.908;2023-07-29T02:33:31;14.30;;;5.07;;
61096;SDS011;46977;50.936;6.908;2023-07-29T02:36:34;10.15;;;4.40;;
61096;SDS011;46977;50.936;6.908;2023-07-29T02:39:37;11.65;;;4.32;;
61096;SDS011;46977;50.936;6.908;2023-07-29T02:42:41;8.85;;;3.72;;
61096;SDS011;46977;50.936;6.908;2023-07-29T02:45:43;9.35;;;3.47;;
61096;SDS011;46977;50.936;6.908;2023-07-29T02:48:45;6.38;;;3.22;;
61096;SDS011;46977;50.936;6.908;2023-07-29T02:51:48;6.80;;;2.92;;
61096;SDS011;46977;50.936;6.908;2023-07-29T02:54:50;8.02;;;3.25;;
61096;SDS011;46977;50.936;6.908;2023-07-29T02:57:54;8.60;;;3.20;;
61096;SDS011;46977;50.936;6.908;2023-07-29T03:01:00;6.43;;;2.83;;
61096;SDS011;46977;50.936;6.908;2023-07-29T03:04:02;6.22;;;2.80;;
61096;SDS011;46977;50.936;6.908;2023-07-29T03:07:07;5.65;;;2.35;;
61096;SDS011;46977;50.936;6.908;2023-07-29T03:10:09;8.45;;;1.98;;
61096;SDS011;46977;50.936;6.908;2023-07-29T03:13:14;4.50;;;1.90;;
61096;SDS011;46977;50.936;6.908;2023-07-29T03:16:17;6.65;;;2.47;;
61096;SDS011;46977;50.936;6.908;2023-07-29T03:19:25;4.15;;;1.77;;
61096;SDS011;46977;50.936;6.908;2023-07-29T03:22:29;5.70;;;1.58;;
61096;SDS011;46977;50.936;6.908;2023-07-29T03:25:31;6.43;;;1.40;;
61096;SDS011;46977;50.936;6.908;2023-07-29T03:28:35;5.70;;;1.50;;
61096;SDS011;46977;50.936;6.908;2023-07-29T03:31:39;3.03;;;1.23;;
61096;SDS011;46977;50.936;6.908;2023-07-29T03:34:41;5.75;;;1.40;;
61096;SDS011;46977;50.936;6.908;2023-07-29T03:37:43;3.75;;;1.50;;
61096;SDS011;46977;50.936;6.908;2023-07-29T03:40:46;7.47;;;1.42;;
61096;SDS011;46977;50.936;6.908;2023-07-29T03:43:49;4.30;;;1.30;;
61096;SDS011;46977;50.936;6.908;2023-07-29T03:46:52;4.13;;;1.52;;
61096;SDS011;46977;50.936;6.908;2023-07-29T03:49:54;3.15;;;1.30;;
61096;SDS011;46977;50.936;6.908;2023-07-29T03:52:57;4.43;;;1.20;;
61096;SDS011;46977;50.936;6.908;2023-07-29T03:56:00;5.05;;;1.10;;
61096;SDS011;46977;50.936;6.908;2023-07-29T03:59:03;4.32;;;1.35;;
61096;SDS011;46977;50.936;6.908;2023-07-29T04:02:07;3.65;;;1.27;;
61096;SDS011;46977;50.936;6.908;2023-07-29T04:05:10;4.80;;;1.30;;
61096;SDS011;46977;50.936;6.908;2023-07-29T04:08:12;4.32;;;1.55;;
61096;SDS011;46977;50.936;6.908;2023-07-29T04:11:15;3.47;;;1.52;;
61096;SDS011;46977;50.936;6.908;2023-07-29T04:14:19;3.42;;;1.85;;
61096;SDS011;46977;50.936;6.908;2023-07-29T04:17:23;2.33;;;1.58;;
61096;SDS011;46977;50.936;6.908;2023-07-29T04:20:25;5.25;;;1.90;;
61096;SDS011;46977;50.936;6.908;2023-07-29T04:23:28;3.05;;;1.70;;
61096;SDS011;46977;50.936;6.908;2023-07-29T04:26:30;4.22;;;1.90;;
61096;SDS011;46977;50.936;6.908;2023-07-29T04:29:34;3.20;;;1.75;;
61096;SDS011;46977;50.936;6.908;2023-07-29T04:32:37;5.90;;;2.53;;
61096;SDS011;46977;50.936;6.908;2023-07-29T04:35:42;10.65;;;5.88;;
61096;SDS011;46977;50.936;6.908;2023-07-29T04:38:44;13.25;;;5.47;;
61096;SDS011;46977;50.936;6.908;2023-07-29T04:41:47;4.15;;;2.50;;
61096;SDS011;46977;50.936;6.908;2023-07-29T04:44:51;3.70;;;1.73;;
61096;SDS011;46977;50.936;6.908;2023-07-29T04:47:53;3.10;;;1.95;;
61096;SDS011;46977;50.936;6.908;2023-07-29T04:50:56;3.47;;;1.90;;
61096;SDS011;46977;50.936;6.908;2023-07-29T04:54:00;8.65;;;2.50;;
61096;SDS011;46977;50.936;6.908;2023-07-29T04:57:02;3.55;;;2.55;;
61096;SDS011;46977;50.936;6.908;2023-07-29T05:00:06;5.38;;;2.30;;
61096;SDS011;46977;50.936;6.908;2023-07-29T05:03:09;5.72;;;2.50;;
61096;SDS011;46977;50.936;6.908;2023-07-29T05:06:11;9.48;;;2.25;;
61096;SDS011;46977;50.936;6.908;2023-07-29T05:09:14;7.18;;;2.38;;
61096;SDS011;46977;50.936;6.908;2023-07-29T05:12:17;6.43;;;2.05;;
61096;SDS011;46977;50.936;6.908;2023-07-29T05:15:21;4.45;;;2.85;;
61096;SDS011;46977;50.936;6.908;2023-07-29T05:18:23;6.07;;;2.47;;
61096;SDS011;46977;50.936;6.908;2023-07-29T05:21:26;4.05;;;2.03;;
61096;SDS011;46977;50.936;6.908;2023-07-29T05:24:28;3.78;;;2.10;;
61096;SDS011;46977;50.936;6.908;2023-07-29T05:27:30;2.95;;;2.40;;
61096;SDS011;46977;50.936;6.908;2023-07-29T05:30:36;4.30;;;2.30;;
61096;SDS011;46977;50.936;6.908;2023-07-29T05:33:40;3.00;;;2.30;;
61096;SDS011;46977;50.936;6.908;2023-07-29T05:36:43;5.05;;;2.08;;
61096;SDS011;46977;50.936;6.908;2023-07-29T05:39:46;6.15;;;2.13;;
61096;SDS011;46977;50.936;6.908;2023-07-29T05:42:50;7.03;;;2.10;;
61096;SDS011;46977;50.936;6.908;2023-07-29T05:45:54;5.32;;;2.28;;
61096;SDS011;46977;50.936;6.908;2023-07-29T05:48:57;2.10;;;1.80;;
61096;SDS011;46977;50.936;6.908;2023-07-29T05:51:59;4.53;;;2.30;;
61096;SDS011;46977;50.936;6.908;2023-07-29T05:55:02;8.30;;;1.95;;
61096;SDS011;46977;50.936;6.908;2023-07-29T05:58:05;4.68;;;2.25;;
61096;SDS011;46977;50.936;6.908;2023-07-29T06:01:09;4.10;;;1.95;;
61096;SDS011;46977;50.936;6.908;2023-07-29T06:04:12;4.13;;;1.88;;
61096;SDS011;46977;50.936;6.908;2023-07-29T06:07:14;2.85;;;2.10;;
61096;SDS011;46977;50.936;6.908;2023-07-29T06:10:17;4.00;;;1.88;;
61096;SDS011;46977;50.936;6.908;2023-07-29T06:13:20;5.05;;;1.77;;
61096;SDS011;46977;50.936;6.908;2023-07-29T06:16:25;2.67;;;1.90;;
61096;SDS011;46977;50.936;6.908;2023-07-29T06:19:28;5.32;;;1.60;;
61096;SDS011;46977;50.936;6.908;2023-07-29T06:22:31;3.30;;;1.88;;
61096;SDS011;46977;50.936;6.908;2023-07-29T06:25:33;3.03;;;1.55;;
61096;SDS011;46977;50.936;6.908;2023-07-29T06:28:35;4.90;;;1.45;;
61096;SDS011;46977;50.936;6.908;2023-07-29T06:31:39;3.47;;;1.45;;
61096;SDS011;46977;50.936;6.908;2023-07-29T06:34:42;3.28;;;1.50;;
61096;SDS011;46977;50.936;6.908;2023-07-29T06:37:44;3.83;;;1.60;;
61096;SDS011;46977;50.936;6.908;2023-07-29T06:40:46;6.15;;;1.77;;
61096;SDS011;46977;50.936;6.908;2023-07-29T06:43:49;2.33;;;1.52;;
61096;SDS011;46977;50.936;6.908;2023-07-29T06:46:52;2.67;;;1.35;;
61096;SDS011;46977;50.936;6.908;2023-07-29T06:49:55;2.92;;;1.15;;
61096;SDS011;46977;50.936;6.908;2023-07-29T06:52:57;1.10;;;1.00;;
61096;SDS011;46977;50.936;6.908;2023-07-29T06:55:59;1.33;;;1.00;;
61096;SDS011;46977;50.936;6.908;2023-07-29T06:59:02;2.42;;;0.95;;
61096;SDS011;46977;50.936;6.908;2023-07-29T07:02:06;1.90;;;1.00;;
61096;SDS011;46977;50.936;6.908;2023-07-29T07:05:09;2.08;;;1.02;;
61096;SDS011;46977;50.936;6.908;2023-07-29T07:08:11;1.98;;;0.80;;
61096;SDS011;46977;50.936;6.908;2023-07-29T07:11:13;1.60;;;0.90;;
61096;SDS011;46977;50.936;6.908;2023-07-29T07:14:15;2.95;;;0.90;;
61096;SDS011;46977;50.936;6.908;2023-07-29T07:17:19;1.60;;;1.00;;
61096;SDS011;46977;50.936;6.908;2023-07-29T07:20:29;2.00;;;1.00;;
61096;SDS011;46977;50.936;6.908;2023-07-29T07:23:34;1.55;;;0.90;;
61096;SDS011;46977;50.936;6.908;2023-07-29T07:26:44;3.83;;;1.20;;
61096;SDS011;46977;50.936;6.908;2023-07-29T07:29:52;1.67;;;0.80;;
61096;SDS011;46977;50.936;6.908;2023-07-29T07:32:56;1.35;;;0.98;;
61096;SDS011;46977;50.936;6.908;2023-07-29T07:35:58;3.03;;;1.02;;
61096;SDS011;46977;50.936;6.908;2023-07-29T07:39:01;1.35;;;0.90;;
61096;SDS011;46977;50.936;6.908;2023-07-29T07:42:04;1.98;;;0.90;;
61096;SDS011;46977;50.936;6.908;2023-07-29T07:45:06;4.53;;;1.02;;
61096;SDS011;46977;50.936;6.908;2023-07-29T07:48:10;2.00;;;0.98;;
61096;SDS011;46977;50.936;6.908;2023-07-29T07:51:26;3.90;;;1.10;;
61096;SDS011;46977;50.936;6.908;2023-07-29T07:55:00;2.22;;;1.00;;
61096;SDS011;46977;50.936;6.908;2023-07-29T07:59:36;3.13;;;0.93;;
61096;SDS011;46977;50.936;6.908;2023-07-29T08:03:55;1.35;;;1.25;;
61096;SDS011;46977;50.936;6.908;2023-07-29T08:07:01;2.13;;;1.00;;
61096;SDS011;46977;50.936;6.908;2023-07-29T08:10:20;3.58;;;0.85;;
61096;SDS011;46977;50.936;6.908;2023-07-29T08:14:02;2.40;;;0.90;;
61096;SDS011;46977;50.936;6.908;2023-07-29T08:17:08;1.50;;;1.00;;
61096;SDS011;46977;50.936;6.908;2023-07-29T08:20:12;2.47;;;0.70;;
61096;SDS011;46977;50.936;6.908;2023-07-29T08:23:17;1.42;;;0.80;;
61096;SDS011;46977;50.936;6.908;2023-07-29T08:26:19;1.98;;;0.70;;
61096;SDS011;46977;50.936;6.908;2023-07-29T08:29:21;1.48;;;0.63;;
61096;SDS011;46977;50.936;6.908;2023-07-29T08:33:22;1.75;;;0.80;;
61096;SDS011;46977;50.936;6.908;2023-07-29T08:36:45;0.65;;;0.60;;
61096;SDS011;46977;50.936;6.908;2023-07-29T08:39:47;2.13;;;0.65;;
61096;SDS011;46977;50.936;6.908;2023-07-29T08:42:50;2.28;;;0.80;;
61096;SDS011;46977;50.936;6.908;2023-07-29T08:45:52;3.42;;;0.60;;
61096;SDS011;46977;50.936;6.908;2023-07-29T08:48:54;1.00;;;0.68;;
61096;SDS011;46977;50.936;6.908;2023-07-29T08:51:58;2.45;;;0.60;;
61096;SDS011;46977;50.936;6.908;2023-07-29T08:55:01;0.93;;;0.60;;
61096;SDS011;46977;50.936;6.908;2023-07-29T08:58:04;0.80;;;0.50;;
61096;SDS011;46977;50.936;6.908;2023-07-29T09:01:06;0.50;;;0.50;;
61096;SDS011;46977;50.936;6.908;2023-07-29T09:04:09;1.75;;;0.70;;
61096;SDS011;46977;50.936;6.908;2023-07-29T09:07:12;2.05;;;0.60;;
61096;SDS011;46977;50.936;6.908;2023-07-29T09:10:15;0.75;;;0.63;;
61096;SDS011;46977;50.936;6.908;2023-07-29T09:13:17;1.17;;;0.60;;
61096;SDS011;46977;50.936;6.908;2023-07-29T09:16:20;1.48;;;0.75;;
61096;SDS011;46977;50.936;6.908;2023-07-29T09:19:24;2.25;;;0.60;;
61096;SDS011;46977;50.936;6.908;2023-07-29T09:22:28;1.20;;;0.70;;
61096;SDS011;46977;50.936;6.908;2023-07-29T09:25:30;0.80;;;0.68;;
61096;SDS011;46977;50.936;6.908;2023-07-29T09:28:33;1.15;;;0.60;;
61096;SDS011;46977;50.936;6.908;2023-07-29T09:31:36;1.30;;;0.45;;
61096;SDS011;46977;50.936;6.908;2023-07-29T09:34:41;4.40;;;0.80;;
61096;SDS011;46977;50.936;6.908;2023-07-29T09:37:45;2.28;;;0.60;;
61096;SDS011;46977;50.936;6.908;2023-07-29T09:40:47;1.85;;;0.80;;
61096;SDS011;46977;50.936;6.908;2023-07-29T09:43:54;2.83;;;0.80;;
61096;SDS011;46977;50.936;6.908;2023-07-29T09:46:58;1.33;;;0.70;;
61096;SDS011;46977;50.936;6.908;2023-07-29T09:50:01;2.05;;;0.80;;
61096;SDS011;46977;50.936;6.908;2023-07-29T09:53:04;0.85;;;0.60;;
61096;SDS011;46977;50.936;6.908;2023-07-29T09:56:09;1.65;;;0.75;;
61096;SDS011;46977;50.936;6.908;2023-07-29T09:59:11;2.47;;;1.20;;
61096;SDS011;46977;50.936;6.908;2023-07-29T10:02:15;1.38;;;0.75;;
61096;SDS011;46977;50.936;6.908;2023-07-29T10:05:19;1.75;;;0.80;;
61096;SDS011;46977;50.936;6.908;2023-07-29T10:08:23;1.77;;;0.63;;
61096;SDS011;46977;50.936;6.908;2023-07-29T10:11:26;3.10;;;0.77;;
61096;SDS011;46977;50.936;6.908;2023-07-29T10:14:28;2.40;;;1.40;;
61096;SDS011;46977;50.936;6.908;2023-07-29T10:17:33;0.98;;;0.85;;
61096;SDS011;46977;50.936;6.908;2023-07-29T10:20:36;4.28;;;0.80;;
61096;SDS011;46977;50.936;6.908;2023-07-29T10:23:42;2.67;;;0.82;;
61096;SDS011;46977;50.936;6.908;2023-07-29T10:26:46;2.15;;;0.90;;
61096;SDS011;46977;50.936;6.908;2023-07-29T10:29:49;2.38;;;0.70;;
61096;SDS011;46977;50.936;6.908;2023-07-29T10:32:52;2.08;;;0.75;;
61096;SDS011;46977;50.936;6.908;2023-07-29T10:35:55;4.10;;;1.17;;
61096;SDS011;46977;50.936;6.908;2023-07-29T10:39:00;2.90;;;1.00;;
61096;SDS011;46977;50.936;6.908;2023-07-29T10:42:03;1.27;;;0.80;;
61096;SDS011;46977;50.936;6.908;2023-07-29T10:45:17;3.30;;;0.90;;
61096;SDS011;46977;50.936;6.908;2023-07-29T10:51:41;2.75;;;0.95;;
61096;SDS011;46977;50.936;6.908;2023-07-29T10:54:48;1.88;;;0.93;;
61096;SDS011;46977;50.936;6.908;2023-07-29T10:58:07;1.40;;;0.80;;
61096;SDS011;46977;50.936;6.908;2023-07-29T11:01:26;1.95;;;1.08;;
61096;SDS011;46977;50.936;6.908;2023-07-29T11:04:29;1.48;;;0.82;;
61096;SDS011;46977;50.936;6.908;2023-07-29T11:07:44;3.40;;;1.35;;
61096;SDS011;46977;50.936;6.908;2023-07-29T11:11:01;3.47;;;0.90;;
61096;SDS011;46977;50.936;6.908;2023-07-29T11:14:05;2.05;;;0.85;;
61096;SDS011;46977;50.936;6.908;2023-07-29T11:17:07;1.00;;;0.88;;
61096;SDS011;46977;50.936;6.908;2023-07-29T11:20:13;2.67;;;1.02;;
61096;SDS011;46977;50.936;6.908;2023-07-29T11:23:15;2.33;;;1.10;;
61096;SDS011;46977;50.936;6.908;2023-07-29T11:26:19;1.60;;;0.90;;
61096;SDS011;46977;50.936;6.908;2023-07-29T11:29:22;3.55;;;1.20;;
61096;SDS011;46977;50.936;6.908;2023-07-29T11:32:24;4.57;;;1.50;;
61096;SDS011;46977;50.936;6.908;2023-07-29T11:35:27;2.70;;;1.30;;
61096;SDS011;46977;50.936;6.908;2023-07-29T11:38:29;4.72;;;1.67;;
61096;SDS011;46977;50.936;6.908;2023-07-29T11:41:40;2.10;;;1.17;;
61096;SDS011;46977;50.936;6.908;2023-07-29T11:44:44;2.10;;;1.17;;
61096;SDS011;46977;50.936;6.908;2023-07-29T11:47:47;2.53;;;1.40;;
61096;SDS011;46977;50.936;6.908;2023-07-29T11:50:49;2.97;;;1.17;;
61096;SDS011;46977;50.936;6.908;2023-07-29T11:53:52;2.35;;;1.10;;
61096;SDS011;46977;50.936;6.908;2023-07-29T11:56:57;5.03;;;1.15;;
61096;SDS011;46977;50.936;6.908;2023-07-29T12:00:01;2.75;;;1.05;;
61096;SDS011;46977;50.936;6.908;2023-07-29T12:03:09;2.42;;;1.02;;
61096;SDS011;46977;50.936;6.908;2023-07-29T12:06:12;3.05;;;1.15;;
61096;SDS011;46977;50.936;6.908;2023-07-29T12:09:15;4.18;;;1.50;;
61096;SDS011;46977;50.936;6.908;2023-07-29T12:12:19;4.28;;;1.20;;
61096;SDS011;46977;50.936;6.908;2023-07-29T12:15:24;2.75;;;1.20;;
61096;SDS011;46977;50.936;6.908;2023-07-29T12:18:29;3.70;;;1.40;;
61096;SDS011;46977;50.936;6.908;2023-07-29T12:21:33;2.95;;;1.17;;
61096;SDS011;46977;50.936;6.908;2023-07-29T12:24:37;1.60;;;0.98;;
61096;SDS011;46977;50.936;6.908;2023-07-29T12:27:41;2.05;;;1.10;;
61096;SDS011;46977;50.936;6.908;2023-07-29T12:30:45;1.65;;;0.95;;
61096;SDS011;46977;50.936;6.908;2023-07-29T12:33:47;3.97;;;1.23;;
61096;SDS011;46977;50.936;6.908;2023-07-29T12:36:50;3.80;;;1.20;;
61096;SDS011;46977;50.936;6.908;2023-07-29T12:39:53;3.10;;;1.52;;
61096;SDS011;46977;50.936;6.908;2023-07-29T12:42:56;5.80;;;1.88;;
61096;SDS011;46977;50.936;6.908;2023-07-29T12:45:59;3.55;;;1.20;;
61096;SDS011;46977;50.936;6.908;2023-07-29T12:49:02;4.93;;;1.83;;
61096;SDS011;46977;50.936;6.908;2023-07-29T12:52:04;3.70;;;1.77;;
61096;SDS011;46977;50.936;6.908;2023-07-29T12:55:07;8.45;;;3.15;;
61096;SDS011;46977;50.936;6.908;2023-07-29T12:58:16;6.60;;;1.95;;
61096;SDS011;46977;50.936;6.908;2023-07-29T13:01:18;8.32;;;3.42;;
61096;SDS011;46977;50.936;6.908;2023-07-29T13:04:20;7.35;;;1.80;;
61096;SDS011;46977;50.936;6.908;2023-07-29T13:07:23;4.20;;;1.98;;
61096;SDS011;46977;50.936;6.908;2023-07-29T13:10:25;6.32;;;2.28;;
61096;SDS011;46977;50.936;6.908;2023-07-29T13:13:29;5.95;;;2.13;;
61096;SDS011;46977;50.936;6.908;2023-07-29T13:16:33;6.63;;;2.28;;
61096;SDS011;46977;50.936;6.908;2023-07-29T13:19:37;4.13;;;1.70;;
61096;SDS011;46977;50.936;6.908;2023-07-29T13:22:40;7.20;;;2.03;;
61096;SDS011;46977;50.936;6.908;2023-07-29T13:25:43;5.78;;;2.40;;
61096;SDS011;46977;50.936;6.908;2023-07-29T13:28:47;7.05;;;2.42;;
61096;SDS011;46977;50.936;6.908;2023-07-29T13:31:50;8.35;;;2.65;;
61096;SDS011;46977;50.936;6.908;2023-07-29T13:34:53;9.27;;;3.38;;
61096;SDS011;46977;50.936;6.908;2023-07-29T13:37:56;7.38;;;2.38;;
61096;SDS011;46977;50.936;6.908;2023-07-29T13:41:00;13.15;;;4.22;;
61096;SDS011;46977;50.936;6.908;2023-07-29T13:44:05;13.95;;;5.93;;
61096;SDS011;46977;50.936;6.908;2023-07-29T13:47:08;11.45;;;4.03;;
61096;SDS011;46977;50.936;6.908;2023-07-29T13:50:11;17.42;;;5.35;;
61096;SDS011;46977;50.936;6.908;2023-07-29T13:53:15;10.50;;;3.55;;
61096;SDS011;46977;50.936;6.908;2023-07-29T13:56:18;8.35;;;3.42;;
61096;SDS011;46977;50.936;6.908;2023-07-29T13:59:21;12.38;;;3.22;;
61096;SDS011;46977;50.936;6.908;2023-07-29T14:02:24;15.68;;;5.15;;
61096;SDS011;46977;50.936;6.908;2023-07-29T14:05:28;12.88;;;4.95;;
61096;SDS011;46977;50.936;6.908;2023-07-29T14:08:30;15.93;;;3.25;;
61096;SDS011;46977;50.936;6.908;2023-07-29T14:11:32;10.73;;;3.70;;
61096;SDS011;46977;50.936;6.908;2023-07-29T14:14:37;12.27;;;3.80;;
61096;SDS011;46977;50.936;6.908;2023-07-29T14:17:39;9.75;;;3.53;;
61096;SDS011;46977;50.936;6.908;2023-07-29T14:20:41;10.20;;;4.13;;
61096;SDS011;46977;50.936;6.908;2023-07-29T14:23:44;11.45;;;3.47;;
61096;SDS011;46977;50.936;6.908;2023-07-29T14:26:46;14.85;;;3.97;;
61096;SDS011;46977;50.936;6.908;2023-07-29T14:29:50;9.55;;;3.95;;
61096;SDS011;46977;50.936;6.908;2023-07-29T14:32:52;11.93;;;3.47;;
61096;SDS011;46977;50.936;6.908;2023-07-29T14:35:54;10.63;;;4.20;;
61096;SDS011;46977;50.936;6.908;2023-07-29T14:38:57;9.32;;;3.95;;
61096;SDS011;46977;50.936;6.908;2023-07-29T14:42:00;12.27;;;4.38;;
61096;SDS011;46977;50.936;6.908;2023-07-29T14:45:04;7.07;;;3.72;;
61096;SDS011;46977;50.936;6.908;2023-07-29T14:48:07;8.48;;;3.38;;
61096;SDS011;46977;50.936;6.908;2023-07-29T14:51:10;12.82;;;4.20;;
61096;SDS011;46977;50.936;6.908;2023-07-29T14:54:16;13.10;;;4.15;;
61096;SDS011;46977;50.936;6.908;2023-07-29T14:57:18;12.95;;;4.85;;
61096;SDS011;46977;50.936;6.908;2023-07-29T15:00:22;11.20;;;4.75;;
61096;SDS011;46977;50.936;6.908;2023-07-29T15:03:24;8.80;;;3.85;;
61096;SDS011;46977;50.936;6.908;2023-07-29T15:06:27;9.35;;;4.20;;
61096;SDS011;46977;50.936;6.908;2023-07-29T15:09:29;6.65;;;3.20;;
61096;SDS011;46977;50.936;6.908;2023-07-29T15:12:31;10.13;;;3.30;;
61096;SDS011;46977;50.936;6.908;2023-07-29T15:15:35;8.95;;;3.22;;
61096;SDS011;46977;50.936;6.908;2023-07-29T15:18:37;4.13;;;2.53;;
61096;SDS011;46977;50.936;6.908;2023-07-29T15:21:39;5.60;;;2.45;;
61096;SDS011;46977;50.936;6.908;2023-07-29T15:24:42;5.72;;;3.03;;
61096;SDS011;46977;50.936;6.908;2023-07-29T15:27:48;5.88;;;3.00;;
61096;SDS011;46977;50.936;6.908;2023-07-29T15:30:52;5.57;;;3.13;;
61096;SDS011;46977;50.936;6.908;2023-07-29T15:33:55;5.30;;;3.05;;
61096;SDS011;46977;50.936;6.908;2023-07-29T15:36:58;8.20;;;3.38;;
61096;SDS011;46977;50.936;6.908;2023-07-29T15:40:00;5.03;;;2.83;;
61096;SDS011;46977;50.936;6.908;2023-07-29T15:43:02;7.75;;;3.50;;
61096;SDS011;46977;50.936;6.908;2023-07-29T15:46:06;6.90;;;2.88;;
61096;SDS011;46977;50.936;6.908;2023-07-29T15:49:08;6.07;;;3.78;;
61096;SDS011;46977;50.936;6.908;2023-07-29T15:52:11;8.18;;;3.55;;
61096;SDS011;46977;50.936;6.908;2023-07-29T15:55:15;7.05;;;3.63;;
61096;SDS011;46977;50.936;6.908;2023-07-29T15:58:18;7.88;;;3.97;;
61096;SDS011;46977;50.936;6.908;2023-07-29T16:01:22;8.60;;;4.43;;
61096;SDS011;46977;50.936;6.908;2023-07-29T16:04:24;6.07;;;3.33;;
61096;SDS011;46977;50.936;6.908;2023-07-29T16:07:27;7.80;;;3.47;;
61096;SDS011;46977;50.936;6.908;2023-07-29T16:10:29;6.25;;;3.97;;
61096;SDS011;46977;50.936;6.908;2023-07-29T16:13:31;8.57;;;3.67;;
61096;SDS011;46977;50.936;6.908;2023-07-29T16:16:35;10.82;;;3.88;;
61096;SDS011;46977;50.936;6.908;2023-07-29T16:19:51;21.95;;;9.80;;
61096;SDS011;46977;50.936;6.908;2023-07-29T16:22:55;13.00;;;5.53;;
61096;SDS011;46977;50.936;6.908;2023-07-29T16:25:57;7.93;;;4.03;;
61096;SDS011;46977;50.936;6.908;2023-07-29T16:29:00;15.55;;;7.32;;
61096;SDS011;46977;50.936;6.908;2023-07-29T16:32:06;13.73;;;4.75;;
61096;SDS011;46977;50.936;6.908;2023-07-29T16:35:09;13.38;;;4.22;;
61096;SDS011;46977;50.936;6.908;2023-07-29T16:38:12;7.05;;;3.90;;
61096;SDS011;46977;50.936;6.908;2023-07-29T16:41:14;5.80;;;3.33;;
61096;SDS011;46977;50.936;6.908;2023-07-29T16:44:36;8.82;;;3.95;;
61096;SDS011;46977;50.936;6.908;2023-07-29T16:47:40;9.18;;;4.68;;
61096;SDS011;46977;50.936;6.908;2023-07-29T16:50:42;8.07;;;4.35;;
61096;SDS011;46977;50.936;6.908;2023-07-29T16:53:45;9.20;;;3.80;;
61096;SDS011;46977;50.936;6.908;2023-07-29T16:56:48;6.15;;;3.58;;
61096;SDS011;46977;50.936;6.908;2023-07-29T16:59:50;8.63;;;4.20;;
61096;SDS011;46977;50.936;6.908;2023-07-29T17:02:54;9.13;;;3.78;;
61096;SDS011;46977;50.936;6.908;2023-07-29T17:05:56;47.33;;;24.00;;
61096;SDS011;46977;50.936;6.908;2023-07-29T17:09:01;13.13;;;7.43;;
61096;SDS011;46977;50.936;6.908;2023-07-29T17:12:04;8.88;;;5.32;;
61096;SDS011;46977;50.936;6.908;2023-07-29T17:15:07;7.18;;;3.65;;
61096;SDS011;46977;50.936;6.908;2023-07-29T17:18:11;9.07;;;4.43;;
61096;SDS011;46977;50.936;6.908;2023-07-29T17:21:14;11.93;;;4.82;;
61096;SDS011;46977;50.936;6.908;2023-07-29T17:24:16;7.10;;;3.53;;
61096;SDS011;46977;50.936;6.908;2023-07-29T17:27:19;7.88;;;3.85;;
61096;SDS011;46977;50.936;6.908;2023-07-29T17:30:21;7.00;;;3.88;;
61096;SDS011;46977;50.936;6.908;2023-07-29T17:33:25;13.00;;;6.15;;
61096;SDS011;46977;50.936;6.908;2023-07-29T17:36:27;12.50;;;5.10;;
61096;SDS011;46977;50.936;6.908;2023-07-29T17:39:30;9.85;;;4.78;;
61096;SDS011;46977;50.936;6.908;2023-07-29T17:42:37;8.25;;;4.53;;
61096;SDS011;46977;50.936;6.908;2023-07-29T17:45:41;11.15;;;6.30;;
61096;SDS011;46977;50.936;6.908;2023-07-29T17:48:48;12.70;;;6.10;;
61096;SDS011;46977;50.936;6.908;2023-07-29T17:51:50;9.15;;;4.00;;
61096;SDS011;46977;50.936;6.908;2023-07-29T17:55:00;12.38;;;5.30;;
61096;SDS011;46977;50.936;6.908;2023-07-29T17:58:03;7.57;;;4.85;;
61096;SDS011;46977;50.936;6.908;2023-07-29T18:01:06;12.45;;;5.50;;
61096;SDS011;46977;50.936;6.908;2023-07-29T18:04:13;15.75;;;7.43;;
61096;SDS011;46977;50.936;6.908;2023-07-29T18:07:16;18.17;;;7.85;;
61096;SDS011;46977;50.936;6.908;2023-07-29T18:10:19;14.18;;;6.93;;
61096;SDS011;46977;50.936;6.908;2023-07-29T18:13:21;16.95;;;8.60;;
61096;SDS011;46977;50.936;6.908;2023-07-29T18:16:26;16.77;;;7.95;;
61096;SDS011;46977;50.936;6.908;2023-07-29T18:19:30;18.27;;;8.55;;
61096;SDS011;46977;50.936;6.908;2023-07-29T18:22:33;13.52;;;6.90;;
61096;SDS011;46977;50.936;6.908;2023-07-29T18:25:35;10.32;;;6.00;;
61096;SDS011;46977;50.936;6.908;2023-07-29T18:28:38;15.05;;;6.90;;
61096;SDS011;46977;50.936;6.908;2023-07-29T18:31:40;14.25;;;5.53;;